Time;durP1;ratioP1;P1;durP2;ratioP2;P2;SDS_P1;SDS_P2;PMS_P1;PMS_P2;Temp;Humidity;BMP_temperature;BMP_pressure;BME280_temperature;BME280_humidity;BME280_pressure;Samples;Min_cycle;Max_cycle;Signal;HPM_P1;HPM_P2
2022/08/04 00:00:11;;;;;;;11.60;8.60;;;;;;;24.62;70.52;101082.31;5057446;28;20415;-66
2022/08/04 00:03:21;;;;;;;11.10;7.97;;;;;;;24.29;71.35;101082.81;5057429;28;20469;-67
2022/08/04 00:06:04;;;;;;;10.40;8.20;;;;;;;24.35;71.25;101087.88;5057190;28;20468;-66
2022/08/04 00:08:46;;;;;;;11.40;8.10;;;;;;;24.43;71.11;101085.75;5057235;28;20821;-66
2022/08/04 00:11:15;;;;;;;10.13;8.40;;;;;;;24.54;70.64;101078.19;5057867;28;20431;-66
2022/08/04 00:13:42;;;;;;;12.27;8.70;;;;;;;24.25;71.76;101082.09;5056685;28;20495;-66
2022/08/04 00:16:09;;;;;;;13.53;8.90;;;;;;;24.23;71.53;101085.75;5060625;28;20420;-67
2022/08/04 00:18:39;;;;;;;12.90;9.60;;;;;;;24.21;71.03;101077.81;5061130;28;20415;-67
2022/08/04 00:21:06;;;;;;;13.33;9.60;;;;;;;24.13;72.42;101078.13;5061809;28;20889;-66
2022/08/04 00:23:35;;;;;;;9.57;8.40;;;;;;;24.03;72.41;101075.00;5061102;28;20502;-67
2022/08/04 00:26:01;;;;;;;13.53;8.33;;;;;;;24.00;72.74;101072.47;5060951;28;20471;-66
2022/08/04 00:28:28;;;;;;;9.63;8.63;;;;;;;24.02;72.71;101069.72;5061283;28;20491;-66
2022/08/04 00:30:54;;;;;;;11.03;8.40;;;;;;;23.62;74.10;101082.81;5060905;28;20428;-67
2022/08/04 00:33:20;;;;;;;9.93;8.43;;;;;;;24.02;72.83;101077.72;5060847;28;20687;-67
2022/08/04 00:35:49;;;;;;;9.63;8.63;;;;;;;23.97;73.19;101077.91;5060411;28;20419;-68
2022/08/04 00:38:16;;;;;;;10.70;8.43;;;;;;;23.72;73.72;101080.69;5060781;28;20416;-68
2022/08/04 00:41:08;;;;;;;9.53;8.00;;;;;;;23.79;73.23;101079.50;5060520;28;20433;-68
2022/08/04 00:43:57;;;;;;;12.70;9.23;;;;;;;23.81;73.47;101080.28;5060298;28;20466;-66
2022/08/04 00:46:41;;;;;;;10.37;8.00;;;;;;;23.88;73.86;101076.50;5060439;28;20455;-65
2022/08/04 00:49:32;;;;;;;9.40;8.30;;;;;;;23.92;72.79;101077.22;5059743;28;20447;-66
2022/08/04 00:52:25;;;;;;;10.73;7.70;;;;;;;23.78;73.21;101077.75;5060441;28;20816;-67
2022/08/04 00:55:12;;;;;;;11.27;8.50;;;;;;;23.28;75.16;101075.28;5060069;28;20792;-66
2022/08/04 00:57:52;;;;;;;9.50;7.20;;;;;;;22.80;76.95;101067.25;5060449;28;20400;-66
2022/08/04 01:00:18;;;;;;;12.67;8.10;;;;;;;22.83;77.42;101071.59;5059545;28;20423;-66
2022/08/04 01:03:09;;;;;;;9.57;7.67;;;;;;;22.97;76.18;101068.44;5060144;28;20416;-66
2022/08/04 01:06:12;;;;;;;11.30;7.63;;;;;;;22.74;76.88;101067.47;5059227;28;20452;-66
2022/08/04 01:08:48;;;;;;;8.03;7.33;;;;;;;23.23;74.78;101058.63;5060343;28;20446;-66
2022/08/04 01:11:27;;;;;;;8.50;6.90;;;;;;;23.32;74.39;101064.47;5059969;28;20411;-66
2022/08/04 01:14:16;;;;;;;9.73;7.47;;;;;;;23.37;73.17;101065.16;5059134;28;20409;-66
2022/08/04 01:16:51;;;;;;;10.23;6.77;;;;;;;23.35;72.59;101063.47;5059909;28;20408;-65
2022/08/04 01:19:35;;;;;;;8.40;7.17;;;;;;;23.08;73.91;101050.28;5059943;28;20490;-67
2022/08/04 01:22:30;;;;;;;10.30;6.67;;;;;;;23.11;73.82;101054.59;5059923;28;20408;-65
2022/08/04 01:24:55;;;;;;;10.80;6.60;;;;;;;23.04;73.43;101046.88;5059875;28;20523;-67
2022/08/04 01:27:47;;;;;;;8.13;5.43;;;;;;;23.13;73.77;101053.66;5059011;28;20546;-65
2022/08/04 01:30:12;;;;;;;7.40;6.20;;;;;;;23.04;73.44;101049.53;5059847;28;20208;-65
2022/08/04 01:32:46;;;;;;;8.50;5.50;;;;;;;23.10;73.66;101047.59;5059565;28;20416;-66
2022/08/04 01:35:27;;;;;;;9.33;5.87;;;;;;;23.15;73.47;101042.97;5058813;28;20170;-67
2022/08/04 01:38:13;;;;;;;10.00;6.23;;;;;;;23.12;73.30;101038.59;5059717;28;20412;-67
2022/08/04 01:40:40;;;;;;;6.40;5.73;;;;;;;23.61;71.07;101033.19;5059590;28;20443;-65
2022/08/04 01:43:07;;;;;;;7.10;5.60;;;;;;;23.50;71.06;101033.63;5059505;28;20511;-66
2022/08/04 01:45:32;;;;;;;7.30;5.80;;;;;;;23.89;70.16;101029.41;5058507;28;20821;-66
2022/08/04 01:47:59;;;;;;;7.50;6.80;;;;;;;23.59;71.30;101028.84;5059051;28;20455;-66
2022/08/04 01:50:26;;;;;;;7.57;6.30;;;;;;;23.35;71.75;101023.56;5059348;28;20224;-67
2022/08/04 01:52:53;;;;;;;7.60;6.40;;;;;;;23.21;72.42;101029.44;5059208;28;20770;-66
2022/08/04 01:55:18;;;;;;;7.40;6.00;;;;;;;23.34;72.41;101025.38;5058758;28;20412;-66
2022/08/04 01:57:50;;;;;;;13.67;6.50;;;;;;;23.34;71.79;101021.84;5058404;28;20466;-66
2022/08/04 02:00:18;;;;;;;7.37;6.17;;;;;;;23.51;71.34;101022.03;5059094;28;20181;-66
2022/08/04 02:02:44;;;;;;;10.00;6.17;;;;;;;23.13;72.67;101021.75;5059383;28;20434;-65
2022/08/04 02:05:10;;;;;;;7.57;5.80;;;;;;;22.82;72.97;101022.88;5058877;28;20431;-67
2022/08/04 02:07:36;;;;;;;6.77;5.50;;;;;;;22.94;73.33;101021.56;5058941;28;20516;-65
2022/08/04 02:10:07;;;;;;;9.57;5.50;;;;;;;23.04;72.52;101016.75;5059247;28;20507;-66
2022/08/04 02:12:56;;;;;;;6.30;5.30;;;;;;;23.40;71.01;101018.09;5058151;28;20173;-65
2022/08/04 02:15:30;;;;;;;6.40;5.80;;;;;;;23.42;70.64;101011.78;5057983;28;20446;-67
2022/08/04 02:18:02;;;;;;;7.30;5.80;;;;;;;23.41;71.09;101015.38;5058209;28;20451;-66
2022/08/04 02:20:32;;;;;;;8.00;5.90;;;;;;;23.32;71.00;101019.25;5058800;28;20785;-66
2022/08/04 02:22:59;;;;;;;13.20;5.70;;;;;;;22.84;72.65;101021.03;5058538;28;20420;-66
2022/08/04 02:25:28;;;;;;;6.37;5.47;;;;;;;22.93;73.23;101014.50;5058455;28;20416;-66
2022/08/04 02:28:24;;;;;;;6.80;5.60;;;;;;;22.85;73.38;101016.56;5058632;28;20443;-67
2022/08/04 02:31:20;;;;;;;7.83;6.20;;;;;;;22.76;73.51;101009.81;5057989;28;20872;-66
2022/08/04 02:33:54;;;;;;;8.07;5.97;;;;;;;22.78;73.15;101015.94;5057762;28;20404;-66
2022/08/04 02:36:39;;;;;;;7.33;6.37;;;;;;;22.94;72.93;101013.56;5057850;28;20477;-65
2022/08/04 02:39:07;;;;;;;6.70;6.00;;;;;;;23.11;72.29;101004.09;5056863;28;20853;-65
2022/08/04 02:41:34;;;;;;;11.23;7.10;;;;;;;23.69;70.06;101003.59;5058303;28;20822;-66
2022/08/04 02:44:04;;;;;;;8.70;5.97;;;;;;;23.90;69.29;100995.69;5058205;28;20428;-65
2022/08/04 02:46:31;;;;;;;6.77;6.07;;;;;;;23.88;68.95;101003.69;5058299;28;20546;-65
2022/08/04 02:48:57;;;;;;;7.83;5.87;;;;;;;24.13;67.97;100992.91;5058838;28;20408;-65
2022/08/04 02:51:29;;;;;;;9.67;5.70;;;;;;;23.07;71.75;100994.50;5058336;28;20446;-66
2022/08/04 02:53:57;;;;;;;7.67;5.97;;;;;;;22.98;72.27;100993.06;5058261;28;20225;-66
2022/08/04 02:56:25;;;;;;;7.40;6.03;;;;;;;23.41;71.06;100994.06;5059277;28;20534;-65
2022/08/04 02:59:21;;;;;;;10.40;6.17;;;;;;;23.44;70.78;100991.28;5057544;28;20506;-67
2022/08/04 03:01:46;;;;;;;8.53;7.20;;;;;;;23.44;70.04;100990.44;5046250;28;20425;-67
2022/08/04 03:04:38;;;;;;;6.57;5.97;;;;;;;23.51;70.40;100990.09;5038232;28;20470;-65
2022/08/04 03:07:33;;;;;;;8.67;6.40;;;;;;;23.39;70.96;100995.91;5037983;28;20205;-66
2022/08/04 03:10:20;;;;;;;6.57;5.90;;;;;;;23.62;70.27;101000.31;5037423;28;20420;-66
2022/08/04 03:12:54;;;;;;;7.47;5.80;;;;;;;23.64;69.73;100992.28;5037875;28;20471;-66
2022/08/04 03:15:29;;;;;;;11.17;6.70;;;;;;;23.66;69.45;100990.41;5037926;28;20415;-66
2022/08/04 03:18:28;;;;;;;6.50;5.90;;;;;;;23.67;68.77;100989.50;5038009;28;20467;-65
2022/08/04 03:21:18;;;;;;;6.87;6.00;;;;;;;23.84;68.08;100988.75;5037880;28;20413;-65
2022/08/04 03:24:21;;;;;;;6.13;5.33;;;;;;;23.68;68.52;100992.09;5037140;28;20424;-65
2022/08/04 03:26:55;;;;;;;6.47;5.60;;;;;;;24.03;67.73;100991.53;5037923;28;20452;-66
2022/08/04 03:29:58;;;;;;;5.57;5.07;;;;;;;23.98;67.69;100982.91;5037939;28;20913;-65
2022/08/04 03:32:44;;;;;;;6.60;5.77;;;;;;;23.84;67.89;100988.75;5037997;28;20408;-66
2022/08/04 03:35:28;;;;;;;7.87;5.70;;;;;;;23.98;67.40;100988.25;5037854;28;20810;-65
2022/08/04 03:38:04;;;;;;;5.83;5.30;;;;;;;24.11;66.83;100978.78;5037781;28;20432;-66
2022/08/04 03:40:48;;;;;;;6.83;6.13;;;;;;;23.88;67.90;100983.31;5037932;28;20435;-65
2022/08/04 03:43:25;;;;;;;8.83;6.53;;;;;;;24.05;67.87;100982.56;5040536;28;20448;-67
2022/08/04 03:46:09;;;;;;;9.43;6.00;;;;;;;23.75;68.81;100976.72;5037810;28;20472;-65
2022/08/04 03:49:07;;;;;;;7.83;5.70;;;;;;;23.75;68.93;100984.72;5037948;28;20420;-67
2022/08/04 03:54:19;;;;;;;7.30;6.10;;;;;;;23.73;69.47;100980.38;5041643;28;20972;-65
2022/08/04 03:57:16;;;;;;;6.27;5.50;;;;;;;23.75;69.46;100982.06;5041402;28;20484;-66
2022/08/04 04:00:05;;;;;;;6.30;5.70;;;;;;;23.56;70.19;100976.63;5035351;28;20174;-66
2022/08/04 04:03:04;;;;;;;6.70;5.90;;;;;;;23.67;69.45;100976.19;5060611;28;20422;-67
2022/08/04 04:05:53;;;;;;;6.53;5.80;;;;;;;23.49;70.23;100980.44;5061287;28;20416;-66
2022/08/04 04:08:24;;;;;;;7.00;6.13;;;;;;;23.53;69.57;100987.41;5060718;28;20710;-67
2022/08/04 04:11:27;;;;;;;6.90;5.97;;;;;;;23.46;70.25;100983.22;5061658;28;20836;-67
2022/08/04 04:13:58;;;;;;;8.83;6.33;;;;;;;23.32;70.88;100982.00;5061127;28;20797;-65
2022/08/04 04:16:43;;;;;;;7.87;5.97;;;;;;;23.75;69.64;100975.88;5060512;28;20428;-66
2022/08/04 04:19:21;;;;;;;7.70;5.67;;;;;;;23.68;69.20;100981.44;5060524;28;20757;-67
2022/08/04 04:22:23;;;;;;;11.57;6.00;;;;;;;24.28;67.70;100975.38;5061117;28;20415;-67
2022/08/04 04:25:10;;;;;;;9.40;5.90;;;;;;;26.09;61.75;100974.88;5060814;28;20435;-66
2022/08/04 04:28:06;;;;;;;6.00;5.40;;;;;;;26.53;59.81;100973.47;5060262;28;20789;-66
2022/08/04 04:30:38;;;;;;;7.57;5.73;;;;;;;26.71;58.27;100976.97;5060925;28;20793;-66
2022/08/04 04:33:26;;;;;;;6.93;5.87;;;;;;;27.54;56.18;100966.13;5060251;28;20458;-65
2022/08/04 04:36:12;;;;;;;6.10;5.50;;;;;;;26.70;57.76;100965.41;5059801;28;20469;-66
2022/08/04 04:38:40;;;;;;;8.03;5.73;;;;;;;27.22;56.08;100959.00;5060049;28;20685;-66
2022/08/04 04:41:25;;;;;;;8.90;6.20;;;;;;;27.87;55.16;100957.06;5060509;28;20675;-66
2022/08/04 04:44:28;;;;;;;8.53;5.60;;;;;;;28.39;53.11;100961.09;5059756;28;20412;-67
2022/08/04 04:47:10;;;;;;;8.43;5.77;;;;;;;27.73;54.39;100953.38;5060522;28;20478;-65
2022/08/04 04:49:53;;;;;;;6.83;5.53;;;;;;;29.30;50.17;100944.63;5059902;28;20459;-66
2022/08/04 04:52:37;;;;;;;8.53;5.57;;;;;;;29.11;50.95;100944.09;5059675;28;20420;-66
2022/08/04 04:55:18;;;;;;;8.97;5.73;;;;;;;27.66;53.30;100938.63;5060270;28;20432;-66
2022/08/04 04:57:44;;;;;;;9.47;5.70;;;;;;;28.83;50.71;100944.03;5059587;28;20419;-65
2022/08/04 05:00:12;;;;;;;7.77;5.00;;;;;;;29.32;50.03;100944.50;5058748;28;20440;-66
2022/08/04 05:02:59;;;;;;;7.07;5.60;;;;;;;28.28;51.96;100944.78;5059840;28;20420;-67
2022/08/04 05:05:42;;;;;;;8.97;5.27;;;;;;;29.11;50.29;100933.34;5060002;28;20404;-67
2022/08/04 05:08:25;;;;;;;14.40;5.77;;;;;;;28.78;51.62;100943.50;5059625;28;20446;-66
2022/08/04 05:11:03;;;;;;;8.40;5.40;;;;;;;29.94;47.84;100943.09;5060163;28;20451;-67
2022/08/04 05:13:37;;;;;;;12.03;5.17;;;;;;;30.09;48.03;100947.38;5060143;28;20429;-66
2022/08/04 05:16:11;;;;;;;8.43;5.27;;;;;;;30.59;46.88;100942.13;5059224;28;20677;-67
2022/08/04 05:18:39;;;;;;;8.30;6.17;;;;;;;30.41;47.01;100945.13;5059210;28;20456;-68
2022/08/04 05:21:18;;;;;;;9.73;5.80;;;;;;;30.16;47.59;100942.44;5059199;28;20493;-68
2022/08/04 05:23:47;;;;;;;7.20;5.13;;;;;;;28.75;50.60;100949.03;5059761;28;20466;-68
2022/08/04 05:26:15;;;;;;;6.40;5.03;;;;;;;29.32;50.03;100941.81;5059066;28;20491;-69
2022/08/04 05:28:53;;;;;;;11.30;5.57;;;;;;;29.40;48.83;100942.19;5059974;28;20416;-68
2022/08/04 05:31:23;;;;;;;10.20;5.20;;;;;;;31.28;45.01;100940.75;5059901;28;20443;-67
2022/08/04 05:33:56;;;;;;;6.57;5.20;;;;;;;30.67;45.75;100939.72;5058972;28;20420;-67
2022/08/04 05:36:29;;;;;;;8.13;5.40;;;;;;;30.82;45.55;100929.69;5059089;28;20712;-66
2022/08/04 05:38:58;;;;;;;5.30;4.30;;;;;;;30.52;45.62;100949.75;5058864;28;20753;-67
2022/08/04 05:41:25;;;;;;;10.90;4.80;;;;;;;31.99;42.28;100927.28;5058808;28;20784;-68
2022/08/04 05:43:51;;;;;;;5.87;4.73;;;;;;;30.87;44.33;100932.06;5059526;28;20708;-67
2022/08/04 05:46:18;;;;;;;5.07;4.57;;;;;;;28.89;49.22;100938.28;5058990;28;20468;-69
2022/08/04 05:48:44;;;;;;;8.30;4.97;;;;;;;29.11;48.30;100934.19;5060284;28;20172;-68
2022/08/04 05:51:10;;;;;;;7.73;4.93;;;;;;;30.53;45.32;100929.97;5058669;28;20420;-69
2022/08/04 05:53:36;;;;;;;6.43;4.60;;;;;;;29.57;46.72;100935.69;5059099;28;20778;-69
2022/08/04 05:56:02;;;;;;;6.80;4.33;;;;;;;27.73;51.73;100933.78;5058868;28;20408;-69
2022/08/04 05:58:29;;;;;;;8.67;4.47;;;;;;;27.20;53.70;100936.78;5058428;28;20423;-69
2022/08/04 06:00:55;;;;;;;8.03;4.63;;;;;;;28.33;50.34;100927.47;5059095;28;20178;-69
2022/08/04 06:03:21;;;;;;;6.60;4.97;;;;;;;30.74;45.61;100924.88;5059024;28;20434;-70
2022/08/04 06:05:47;;;;;;;7.73;5.13;;;;;;;31.11;44.57;100918.66;5058807;28;20543;-68
2022/08/04 06:08:12;;;;;;;5.83;4.57;;;;;;;32.28;41.86;100914.22;5058303;28;20200;-69
2022/08/04 06:10:39;;;;;;;8.87;4.90;;;;;;;30.82;45.01;100927.00;5059328;28;20201;-69
2022/08/04 06:13:10;;;;;;;6.93;4.50;;;;;;;31.71;42.73;100915.97;5058030;28;20205;-67
2022/08/04 06:15:38;;;;;;;6.30;4.53;;;;;;;32.32;41.54;100917.56;5057968;28;20683;-68
2022/08/04 06:18:05;;;;;;;6.37;4.17;;;;;;;31.41;43.60;100914.63;5058491;28;20717;-68
2022/08/04 06:20:33;;;;;;;5.40;4.40;;;;;;;31.64;43.32;100920.97;5058129;28;20427;-68
2022/08/04 06:23:02;;;;;;;5.60;3.97;;;;;;;31.49;43.56;100917.59;5057944;28;20805;-68
2022/08/04 06:25:31;;;;;;;10.33;4.50;;;;;;;31.89;42.64;100908.28;5058961;28;20447;-68
2022/08/04 06:27:57;;;;;;;5.00;4.40;;;;;;;30.89;45.18;100906.75;5057791;28;20426;-68
2022/08/04 06:30:25;;;;;;;6.13;4.50;;;;;;;30.46;45.72;100909.88;5058401;28;20503;-67
2022/08/04 06:32:55;;;;;;;9.83;4.30;;;;;;;30.91;44.92;100910.16;5058730;28;20498;-67
2022/08/04 06:35:22;;;;;;;7.23;4.73;;;;;;;30.80;45.11;100904.72;5058381;28;20468;-67
2022/08/04 06:37:48;;;;;;;5.93;4.30;;;;;;;31.47;44.20;100908.75;5057834;28;20416;-68
2022/08/04 06:40:16;;;;;;;6.97;4.47;;;;;;;31.98;43.13;100902.16;5058168;28;20428;-68
2022/08/04 06:42:42;;;;;;;6.83;4.53;;;;;;;32.08;42.74;100907.69;5058551;28;20837;-69
2022/08/04 06:45:09;;;;;;;6.00;4.40;;;;;;;33.03;40.76;100901.03;5057485;28;20462;-67
2022/08/04 06:47:37;;;;;;;7.70;4.40;;;;;;;33.03;40.22;100901.03;5057821;28;20189;-67
2022/08/04 06:50:04;;;;;;;10.70;5.50;;;;;;;32.94;40.70;100899.09;5057536;28;20408;-67
2022/08/04 06:52:29;;;;;;;8.50;4.90;;;;;;;31.81;43.10;100897.22;5058068;28;20642;-67
2022/08/04 06:54:55;;;;;;;8.90;5.50;;;;;;;31.47;43.77;100895.28;5058555;28;20419;-67
2022/08/04 06:57:28;;;;;;;9.60;5.10;;;;;;;33.45;39.90;100882.22;5058427;28;20176;-68
2022/08/04 07:00:13;;;;;;;7.03;4.70;;;;;;;33.44;39.52;100888.63;5057334;28;20443;-69
2022/08/04 07:02:50;;;;;;;10.37;4.70;;;;;;;32.84;39.95;100894.47;5057030;28;20428;-69
2022/08/04 07:05:17;;;;;;;8.40;4.90;;;;;;;32.59;41.00;100890.19;5057348;28;20412;-69
2022/08/04 07:07:43;;;;;;;5.87;4.40;;;;;;;32.61;40.54;100882.81;5057939;28;20463;-68
2022/08/04 07:10:09;;;;;;;8.03;4.30;;;;;;;33.14;39.83;100892.91;5057971;28;20425;-68
2022/08/04 07:12:35;;;;;;;7.37;4.40;;;;;;;34.28;37.95;100894.97;5058563;28;20418;-68
2022/08/04 07:15:02;;;;;;;6.40;4.97;;;;;;;33.94;38.88;100892.50;5056930;28;20412;-68
2022/08/04 07:17:29;;;;;;;8.83;4.80;;;;;;;33.32;39.28;100895.06;5057246;28;20477;-70
2022/08/04 07:19:55;;;;;;;11.13;4.60;;;;;;;34.83;36.79;100879.22;5058040;28;20404;-68
2022/08/04 07:22:20;;;;;;;7.10;4.30;;;;;;;33.81;38.78;100887.31;5057825;28;20423;-69
2022/08/04 07:24:46;;;;;;;7.93;4.83;;;;;;;34.39;37.34;100886.78;5062255;28;20412;-69
2022/08/04 07:27:11;;;;;;;9.60;4.50;;;;;;;34.52;37.03;100884.69;5064716;28;20197;-70
2022/08/04 07:29:37;;;;;;;5.33;4.20;;;;;;;34.46;37.26;100879.81;5064499;28;20215;-69
2022/08/04 07:32:04;;;;;;;6.80;4.30;;;;;;;32.82;40.53;100882.06;5063677;28;20169;-69
2022/08/04 07:34:31;;;;;;;8.50;5.50;;;;;;;32.69;40.95;100880.34;5064625;28;20170;-69
2022/08/04 07:36:58;;;;;;;9.40;5.50;;;;;;;33.03;40.27;100877.59;5063882;28;20487;-69
2022/08/04 07:39:25;;;;;;;6.73;4.27;;;;;;;34.96;36.10;100881.66;5063649;28;20474;-69
2022/08/04 07:41:50;;;;;;;8.97;4.50;;;;;;;33.27;39.76;100876.53;5064970;28;20415;-68
2022/08/04 07:44:16;;;;;;;5.80;4.50;;;;;;;34.93;36.62;100872.97;5063530;28;20411;-69
2022/08/04 07:46:42;;;;;;;10.00;4.73;;;;;;;35.81;35.12;100865.63;5064593;28;20205;-68
2022/08/04 07:49:08;;;;;;;9.43;4.90;;;;;;;36.22;35.03;100863.50;5063961;28;20177;-70
2022/08/04 07:51:35;;;;;;;9.60;4.50;;;;;;;35.50;35.21;100871.25;5063844;28;20450;-69
2022/08/04 07:54:04;;;;;;;6.57;3.90;;;;;;;36.48;33.81;100867.38;5064017;28;20729;-69
2022/08/04 07:56:31;;;;;;;5.97;4.37;;;;;;;36.41;34.23;100859.00;5064656;28;20407;-69
2022/08/04 07:58:56;;;;;;;7.13;4.27;;;;;;;37.09;33.67;100863.13;5063518;28;20415;-69
2022/08/04 08:01:25;;;;;;;8.27;4.13;;;;;;;36.56;33.88;100860.19;5064171;28;20446;-71
2022/08/04 08:03:52;;;;;;;9.57;4.20;;;;;;;34.10;37.72;100867.69;5063836;28;20184;-70
2022/08/04 08:06:18;;;;;;;5.90;4.23;;;;;;;35.82;34.97;100856.47;5064035;28;20451;-71
2022/08/04 08:08:43;;;;;;;8.00;4.10;;;;;;;35.24;35.56;100866.41;5064085;28;20740;-69
2022/08/04 08:11:09;;;;;;;9.87;4.20;;;;;;;36.36;34.16;100864.00;5064316;28;20169;-69
2022/08/04 08:13:35;;;;;;;9.63;4.77;;;;;;;36.29;34.00;100865.59;5064136;28;20173;-69
2022/08/04 08:16:01;;;;;;;4.70;3.80;;;;;;;37.71;31.98;100851.38;5064074;28;20411;-70
2022/08/04 08:18:27;;;;;;;5.97;4.17;;;;;;;37.95;31.81;100850.69;5064175;28;20502;-70
2022/08/04 08:20:52;;;;;;;8.40;4.33;;;;;;;34.77;35.42;100860.78;5064215;28;20404;-69
2022/08/04 08:23:18;;;;;;;6.30;3.80;;;;;;;35.74;33.30;100856.38;5063495;28;20558;-69
2022/08/04 08:25:44;;;;;;;7.10;4.07;;;;;;;37.61;31.39;100847.94;5064283;28;20180;-69
2022/08/04 08:28:09;;;;;;;9.10;4.30;;;;;;;37.70;30.59;100850.53;5063263;28;20663;-70
2022/08/04 08:30:35;;;;;;;9.87;4.60;;;;;;;38.29;29.04;100846.28;5063954;28;20175;-70
2022/08/04 08:33:03;;;;;;;6.23;4.20;;;;;;;36.88;31.57;100856.13;5064374;28;20531;-69
2022/08/04 08:35:33;;;;;;;5.73;3.80;;;;;;;38.11;29.35;100849.91;5062479;28;20177;-70
2022/08/04 08:38:02;;;;;;;7.33;4.20;;;;;;;38.17;29.48;100846.56;5060733;28;20411;-70
2022/08/04 08:40:48;;;;;;;8.23;3.80;;;;;;;35.51;33.68;100845.00;5059979;28;20408;-70
2022/08/04 08:43:21;;;;;;;7.13;3.80;;;;;;;35.97;33.10;100847.91;5060926;28;20446;-69
2022/08/04 08:46:09;;;;;;;5.90;3.87;;;;;;;36.76;31.67;100832.88;5060420;28;20730;-70
2022/08/04 08:48:49;;;;;;;8.47;4.23;;;;;;;37.57;30.19;100831.06;5059996;28;20418;-69
2022/08/04 08:51:52;;;;;;;9.17;4.30;;;;;;;36.79;30.42;100832.56;5060533;28;20443;-69
2022/08/04 08:54:35;;;;;;;7.13;4.20;;;;;;;35.79;32.22;100826.06;5060347;28;20450;-68
2022/08/04 08:57:25;;;;;;;6.13;3.70;;;;;;;37.64;30.33;100834.00;5059680;28;20415;-70
2022/08/04 09:00:04;;;;;;;4.57;3.70;;;;;;;39.05;28.92;100822.59;5060605;28;20671;-68
2022/08/04 09:03:06;;;;;;;7.17;4.10;;;;;;;39.03;27.93;100820.03;5060415;28;20415;-70
2022/08/04 09:05:40;;;;;;;6.30;3.63;;;;;;;37.55;30.05;100831.22;5060192;28;20662;-70
2022/08/04 09:08:19;;;;;;;12.30;4.30;;;;;;;39.14;28.46;100813.38;5060077;28;20438;-69
2022/08/04 09:10:48;;;;;;;9.90;3.80;;;;;;;37.18;30.38;100824.13;5059831;28;20480;-70
2022/08/04 09:13:23;;;;;;;6.90;4.03;;;;;;;37.39;30.00;100821.09;5059910;28;20427;-70
2022/08/04 09:16:01;;;;;;;12.90;4.60;;;;;;;37.06;29.99;100817.22;5059163;28;20419;-70
2022/08/04 09:18:35;;;;;;;9.07;3.90;;;;;;;38.39;28.82;100814.31;5059376;28;20465;-68
2022/08/04 09:21:23;;;;;;;9.07;3.63;;;;;;;39.36;27.45;100808.28;5059212;28;20821;-69
2022/08/04 09:24:15;;;;;;;6.67;3.60;;;;;;;39.13;27.87;100814.41;5058906;28;20817;-70
2022/08/04 09:27:03;;;;;;;5.20;3.33;;;;;;;38.86;27.60;100808.31;5059304;28;20478;-70
2022/08/04 09:29:58;;;;;;;4.93;3.43;;;;;;;37.52;29.69;100815.25;5059335;28;20416;-70
2022/08/04 09:32:23;;;;;;;5.20;3.27;;;;;;;38.13;28.56;100804.31;5059290;28;20642;-70
2022/08/04 09:35:02;;;;;;;6.67;3.77;;;;;;;39.86;26.06;100804.41;5059691;28;20419;-70
2022/08/04 09:37:41;;;;;;;7.50;3.47;;;;;;;38.65;28.02;100805.19;5059649;28;20176;-70
2022/08/04 09:40:10;;;;;;;5.30;3.87;;;;;;;38.89;27.06;100807.94;5058997;28;20412;-70
2022/08/04 09:43:02;;;;;;;5.70;3.80;;;;;;;37.99;28.02;100807.69;5059212;28;20446;-70
2022/08/04 09:45:57;;;;;;;5.33;3.70;;;;;;;39.03;26.72;100803.69;5058889;28;20407;-70
2022/08/04 09:48:32;;;;;;;3.77;3.40;;;;;;;37.87;28.18;100802.50;5050995;28;20447;-70
2022/08/04 09:50:58;;;;;;;3.93;3.37;;;;;;;39.23;26.59;100800.66;5059473;28;20468;-70
2022/08/04 09:53:41;;;;;;;6.73;3.97;;;;;;;39.82;26.08;100792.16;5059255;28;20876;-70
2022/08/04 09:56:12;;;;;;;3.97;3.53;;;;;;;39.31;26.17;100795.19;5058534;28;20424;-70
2022/08/04 09:59:17;;;;;;;4.43;4.03;;;;;;;39.23;26.69;100789.75;5057291;28;20455;-71
2022/08/04 10:01:44;;;;;;;6.80;3.70;;;;;;;38.86;27.41;100794.69;5050399;28;20419;-69
2022/08/04 10:04:13;;;;;;;3.80;3.50;;;;;;;40.44;25.29;100790.50;5057442;28;20427;-69
2022/08/04 10:06:48;;;;;;;5.10;3.80;;;;;;;39.78;26.40;100789.97;5057051;28;20474;-71
2022/08/04 10:09:34;;;;;;;7.07;3.60;;;;;;;39.20;26.13;100788.22;5058401;28;20490;-70
2022/08/04 10:12:09;;;;;;;4.73;3.63;;;;;;;39.55;26.29;100780.63;5058694;28;20453;-70
2022/08/04 10:14:56;;;;;;;4.90;3.70;;;;;;;37.60;28.35;100787.22;5058684;28;20410;-70
2022/08/04 10:17:31;;;;;;;5.70;3.90;;;;;;;39.08;26.55;100781.38;5058797;28;20736;-70
2022/08/04 10:20:07;;;;;;;6.43;3.73;;;;;;;38.38;27.19;100780.78;5058539;28;20434;-70
2022/08/04 10:22:37;;;;;;;6.83;3.97;;;;;;;37.83;28.16;100776.66;5058546;28;20410;-69
2022/08/04 10:25:28;;;;;;;5.90;4.40;;;;;;;38.98;26.21;100772.50;5057622;28;20427;-69
2022/08/04 10:27:57;;;;;;;4.60;3.80;;;;;;;37.82;27.96;100780.41;5058189;28;20459;-70
2022/08/04 10:30:23;;;;;;;7.20;3.73;;;;;;;38.42;26.90;100764.97;5058491;28;20418;-70
2022/08/04 10:32:54;;;;;;;5.67;4.00;;;;;;;38.06;28.38;100776.06;5058405;28;20469;-69
2022/08/04 10:35:25;;;;;;;5.50;3.90;;;;;;;40.00;25.14;100769.22;5058243;28;20817;-69
2022/08/04 10:38:24;;;;;;;5.50;4.00;;;;;;;39.68;25.34;100762.88;5057703;28;20507;-69
2022/08/04 10:41:10;;;;;;;4.47;4.00;;;;;;;38.95;26.63;100757.34;5057878;28;20443;-68
2022/08/04 10:43:48;;;;;;;4.20;3.90;;;;;;;39.47;26.26;100747.94;5057632;28;20427;-70
2022/08/04 10:46:32;;;;;;;3.70;3.40;;;;;;;37.30;28.48;100754.06;5057451;28;20529;-70
2022/08/04 10:49:24;;;;;;;4.97;3.90;;;;;;;39.22;25.69;100744.41;5058042;28;20415;-70
2022/08/04 10:51:54;;;;;;;7.63;4.10;;;;;;;38.64;26.40;100738.09;5057357;28;20424;-70
2022/08/04 10:54:55;;;;;;;4.10;3.80;;;;;;;39.07;25.58;100734.16;5057082;28;20463;-70
2022/08/04 10:57:27;;;;;;;4.37;3.97;;;;;;;37.72;26.11;100752.44;5057476;28;20451;-70
2022/08/04 11:00:00;;;;;;;4.00;3.60;;;;;;;36.88;26.94;100735.75;5056402;28;20686;-68
2022/08/04 11:02:40;;;;;;;6.17;3.80;;;;;;;38.80;24.46;100724.50;5057328;28;20478;-70
2022/08/04 11:05:10;;;;;;;4.77;3.67;;;;;;;38.45;25.83;100729.22;5057885;28;20407;-69
2022/08/04 11:07:38;;;;;;;6.20;4.00;;;;;;;39.19;25.10;100710.16;5057669;28;20541;-71
2022/08/04 11:10:05;;;;;;;4.43;3.77;;;;;;;38.50;24.43;100713.22;5057856;28;20418;-71
2022/08/04 11:12:31;;;;;;;5.67;3.50;;;;;;;38.65;23.92;100704.38;5057054;28;20412;-73
2022/08/04 11:15:18;;;;;;;4.90;3.60;;;;;;;38.33;23.01;100706.91;5056863;28;20415;-73
2022/08/04 11:17:46;;;;;;;4.37;3.60;;;;;;;36.86;25.86;100708.72;5057195;28;20412;-73
2022/08/04 11:20:52;;;;;;;4.13;3.73;;;;;;;37.46;24.57;100706.25;5057090;28;20713;-71
2022/08/04 11:23:18;;;;;;;4.07;3.60;;;;;;;38.51;23.07;100695.00;5039648;28;20823;-72
2022/08/04 11:25:51;;;;;;;5.03;3.80;;;;;;;38.67;22.89;100702.31;5053172;28;20435;-69
2022/08/04 11:28:46;;;;;;;4.50;4.10;;;;;;;37.30;23.50;100710.56;5057758;28;20840;-69
2022/08/04 11:31:14;;;;;;;4.80;3.80;;;;;;;38.31;22.04;100699.91;5056923;28;20406;-68
2022/08/04 11:33:45;;;;;;;3.90;3.57;;;;;;;38.11;22.20;100705.66;5057257;28;20427;-71
2022/08/04 11:36:20;;;;;;;4.57;3.80;;;;;;;37.61;22.41;100698.31;5056666;28;20870;-71
2022/08/04 11:38:50;;;;;;;4.03;3.80;;;;;;;38.40;21.35;100707.06;5057611;28;20502;-70
2022/08/04 11:41:29;;;;;;;4.20;3.60;;;;;;;38.46;21.34;100689.19;5056736;28;20434;-71
2022/08/04 11:43:57;;;;;;;5.33;3.90;;;;;;;38.15;21.32;100689.84;5057366;28;20415;-71
2022/08/04 11:46:27;;;;;;;4.07;3.67;;;;;;;37.48;22.17;100693.31;5057127;28;20512;-71
2022/08/04 11:49:01;;;;;;;3.70;3.50;;;;;;;37.13;21.71;100701.44;5057031;28;20411;-72
2022/08/04 11:51:27;;;;;;;5.80;3.63;;;;;;;37.67;21.53;100693.09;5056839;28;20419;-70
2022/08/04 11:53:53;;;;;;;4.00;3.70;;;;;;;36.79;22.58;100696.75;5058073;28;20900;-70
2022/08/04 11:56:18;;;;;;;4.90;3.80;;;;;;;37.28;21.76;100695.41;5057771;28;20188;-69
2022/08/04 11:58:43;;;;;;;5.40;3.93;;;;;;;35.87;23.59;100693.28;5056816;28;20420;-69
2022/08/04 12:01:34;;;;;;;4.40;3.80;;;;;;;36.50;23.26;100700.59;5057450;28;20177;-71
2022/08/04 12:04:17;;;;;;;4.50;3.83;;;;;;;38.33;21.28;100687.00;5056575;28;20166;-70